sensor_id;sensor_type;location;lat;lon;timestamp;P1;durP1;ratioP1;P2;durP2;ratioP2
35961;SDS011;22044;48.298;10.008;2023-06-14T00:00:21;6.30;;;3.97;;
35961;SDS011;22044;48.298;10.008;2023-06-14T00:03:07;5.53;;;4.40;;
35961;SDS011;22044;48.298;10.008;2023-06-14T00:05:53;7.63;;;4.37;;
35961;SDS011;22044;48.298;10.008;2023-06-14T00:08:39;4.43;;;3.77;;
35961;SDS011;22044;48.298;10.008;2023-06-14T00:11:25;7.73;;;4.40;;
35961;SDS011;22044;48.298;10.008;2023-06-14T00:14:12;6.40;;;4.30;;
35961;SDS011;22044;48.298;10.008;2023-06-14T00:16:58;5.13;;;4.30;;
35961;SDS011;22044;48.298;10.008;2023-06-14T00:19:43;7.47;;;4.20;;
35961;SDS011;22044;48.298;10.008;2023-06-14T00:22:29;6.83;;;4.40;;
35961;SDS011;22044;48.298;10.008;2023-06-14T00:25:15;9.33;;;4.30;;
35961;SDS011;22044;48.298;10.008;2023-06-14T00:28:01;5.30;;;4.17;;
35961;SDS011;22044;48.298;10.008;2023-06-14T00:30:48;4.40;;;4.00;;
35961;SDS011;22044;48.298;10.008;2023-06-14T00:33:33;6.13;;;4.40;;
35961;SDS011;22044;48.298;10.008;2023-06-14T00:36:19;7.43;;;4.60;;
35961;SDS011;22044;48.298;10.008;2023-06-14T00:39:05;5.77;;;4.07;;
35961;SDS011;22044;48.298;10.008;2023-06-14T00:41:51;8.00;;;4.40;;
35961;SDS011;22044;48.298;10.008;2023-06-14T00:44:38;12.17;;;4.57;;
35961;SDS011;22044;48.298;10.008;2023-06-14T00:47:26;5.07;;;4.37;;
35961;SDS011;22044;48.298;10.008;2023-06-14T00:50:11;4.60;;;4.20;;
35961;SDS011;22044;48.298;10.008;2023-06-14T00:52:57;4.97;;;4.40;;
35961;SDS011;22044;48.298;10.008;2023-06-14T00:55:43;7.30;;;4.90;;
35961;SDS011;22044;48.298;10.008;2023-06-14T00:58:29;4.73;;;4.20;;
35961;SDS011;22044;48.298;10.008;2023-06-14T01:01:16;6.03;;;3.93;;
35961;SDS011;22044;48.298;10.008;2023-06-14T01:04:04;7.73;;;4.37;;
35961;SDS011;22044;48.298;10.008;2023-06-14T01:06:51;5.27;;;4.10;;
35961;SDS011;22044;48.298;10.008;2023-06-14T01:09:48;6.80;;;4.20;;
35961;SDS011;22044;48.298;10.008;2023-06-14T01:12:44;6.10;;;4.77;;
35961;SDS011;22044;48.298;10.008;2023-06-14T01:15:36;7.03;;;4.20;;
35961;SDS011;22044;48.298;10.008;2023-06-14T01:18:23;5.77;;;4.10;;
35961;SDS011;22044;48.298;10.008;2023-06-14T01:21:20;4.63;;;4.17;;
35961;SDS011;22044;48.298;10.008;2023-06-14T01:24:08;5.10;;;4.30;;
35961;SDS011;22044;48.298;10.008;2023-06-14T01:26:54;6.87;;;4.43;;
35961;SDS011;22044;48.298;10.008;2023-06-14T01:29:41;7.87;;;4.80;;
35961;SDS011;22044;48.298;10.008;2023-06-14T01:32:32;5.77;;;4.57;;
35961;SDS011;22044;48.298;10.008;2023-06-14T01:35:18;7.07;;;5.00;;
35961;SDS011;22044;48.298;10.008;2023-06-14T01:38:04;7.93;;;4.97;;
35961;SDS011;22044;48.298;10.008;2023-06-14T01:40:54;5.60;;;4.77;;
35961;SDS011;22044;48.298;10.008;2023-06-14T01:43:43;5.63;;;4.50;;
35961;SDS011;22044;48.298;10.008;2023-06-14T01:46:30;5.43;;;4.80;;
35961;SDS011;22044;48.298;10.008;2023-06-14T01:49:16;5.47;;;4.90;;
35961;SDS011;22044;48.298;10.008;2023-06-14T01:52:02;6.10;;;4.60;;
35961;SDS011;22044;48.298;10.008;2023-06-14T01:54:47;5.40;;;4.67;;
35961;SDS011;22044;48.298;10.008;2023-06-14T01:57:34;5.20;;;4.13;;
35961;SDS011;22044;48.298;10.008;2023-06-14T02:00:20;5.17;;;4.67;;
35961;SDS011;22044;48.298;10.008;2023-06-14T02:03:09;4.83;;;4.33;;
35961;SDS011;22044;48.298;10.008;2023-06-14T02:05:55;6.27;;;4.83;;
35961;SDS011;22044;48.298;10.008;2023-06-14T02:08:41;6.93;;;5.00;;
35961;SDS011;22044;48.298;10.008;2023-06-14T02:11:27;5.57;;;4.63;;
35961;SDS011;22044;48.298;10.008;2023-06-14T02:14:14;7.53;;;4.90;;
35961;SDS011;22044;48.298;10.008;2023-06-14T02:17:00;8.17;;;4.80;;
35961;SDS011;22044;48.298;10.008;2023-06-14T02:19:46;5.80;;;5.17;;
35961;SDS011;22044;48.298;10.008;2023-06-14T02:22:32;6.03;;;4.60;;
35961;SDS011;22044;48.298;10.008;2023-06-14T02:25:18;5.30;;;4.80;;
35961;SDS011;22044;48.298;10.008;2023-06-14T02:28:03;6.90;;;5.00;;
35961;SDS011;22044;48.298;10.008;2023-06-14T02:30:50;5.80;;;4.80;;
35961;SDS011;22044;48.298;10.008;2023-06-14T02:33:36;7.50;;;5.30;;
35961;SDS011;22044;48.298;10.008;2023-06-14T02:36:22;5.80;;;4.93;;
35961;SDS011;22044;48.298;10.008;2023-06-14T02:39:08;8.20;;;6.80;;
35961;SDS011;22044;48.298;10.008;2023-06-14T02:41:54;12.47;;;7.27;;
35961;SDS011;22044;48.298;10.008;2023-06-14T02:44:40;9.17;;;6.97;;
35961;SDS011;22044;48.298;10.008;2023-06-14T02:47:26;9.40;;;6.90;;
35961;SDS011;22044;48.298;10.008;2023-06-14T02:50:12;11.23;;;6.17;;
35961;SDS011;22044;48.298;10.008;2023-06-14T02:52:58;9.13;;;6.00;;
35961;SDS011;22044;48.298;10.008;2023-06-14T02:55:43;11.07;;;6.60;;
35961;SDS011;22044;48.298;10.008;2023-06-14T02:58:30;10.10;;;5.97;;
35961;SDS011;22044;48.298;10.008;2023-06-14T03:01:17;9.23;;;5.57;;
35961;SDS011;22044;48.298;10.008;2023-06-14T03:04:05;10.87;;;5.77;;
35961;SDS011;22044;48.298;10.008;2023-06-14T03:06:53;9.57;;;5.43;;
35961;SDS011;22044;48.298;10.008;2023-06-14T03:09:41;5.87;;;5.27;;
35961;SDS011;22044;48.298;10.008;2023-06-14T03:12:29;6.57;;;5.20;;
35961;SDS011;22044;48.298;10.008;2023-06-14T03:15:16;5.27;;;4.47;;
35961;SDS011;22044;48.298;10.008;2023-06-14T03:18:04;8.60;;;5.10;;
35961;SDS011;22044;48.298;10.008;2023-06-14T03:20:54;7.40;;;4.70;;
35961;SDS011;22044;48.298;10.008;2023-06-14T03:23:41;7.83;;;4.90;;
35961;SDS011;22044;48.298;10.008;2023-06-14T03:26:28;10.90;;;4.87;;
35961;SDS011;22044;48.298;10.008;2023-06-14T03:29:14;6.50;;;4.97;;
35961;SDS011;22044;48.298;10.008;2023-06-14T03:32:01;5.87;;;4.63;;
35961;SDS011;22044;48.298;10.008;2023-06-14T03:34:56;7.40;;;4.80;;
35961;SDS011;22044;48.298;10.008;2023-06-14T03:37:43;6.00;;;5.20;;
35961;SDS011;22044;48.298;10.008;2023-06-14T03:40:29;5.83;;;4.60;;
35961;SDS011;22044;48.298;10.008;2023-06-14T03:43:19;8.10;;;5.03;;
35961;SDS011;22044;48.298;10.008;2023-06-14T03:46:05;6.40;;;4.53;;
35961;SDS011;22044;48.298;10.008;2023-06-14T03:48:52;5.93;;;4.83;;
35961;SDS011;22044;48.298;10.008;2023-06-14T03:51:38;7.73;;;5.10;;
35961;SDS011;22044;48.298;10.008;2023-06-14T03:54:26;6.60;;;4.50;;
35961;SDS011;22044;48.298;10.008;2023-06-14T03:57:13;6.17;;;4.40;;
35961;SDS011;22044;48.298;10.008;2023-06-14T04:00:00;7.03;;;4.90;;
35961;SDS011;22044;48.298;10.008;2023-06-14T04:02:58;5.80;;;4.30;;
35961;SDS011;22044;48.298;10.008;2023-06-14T04:05:44;4.43;;;4.03;;
35961;SDS011;22044;48.298;10.008;2023-06-14T04:08:34;5.00;;;4.07;;
35961;SDS011;22044;48.298;10.008;2023-06-14T04:11:25;10.90;;;4.90;;
35961;SDS011;22044;48.298;10.008;2023-06-14T04:14:10;6.73;;;4.57;;
35961;SDS011;22044;48.298;10.008;2023-06-14T04:16:56;7.00;;;4.83;;
35961;SDS011;22044;48.298;10.008;2023-06-14T04:19:42;6.83;;;4.77;;
35961;SDS011;22044;48.298;10.008;2023-06-14T04:22:27;5.37;;;4.37;;
35961;SDS011;22044;48.298;10.008;2023-06-14T04:25:15;6.20;;;4.23;;
35961;SDS011;22044;48.298;10.008;2023-06-14T04:28:03;6.10;;;4.87;;
35961;SDS011;22044;48.298;10.008;2023-06-14T04:30:49;6.37;;;4.40;;
35961;SDS011;22044;48.298;10.008;2023-06-14T04:33:36;12.70;;;5.17;;
35961;SDS011;22044;48.298;10.008;2023-06-14T04:36:28;7.53;;;4.63;;
35961;SDS011;22044;48.298;10.008;2023-06-14T04:39:15;7.73;;;5.50;;
35961;SDS011;22044;48.298;10.008;2023-06-14T04:42:03;17.67;;;5.80;;
35961;SDS011;22044;48.298;10.008;2023-06-14T04:44:53;6.17;;;5.20;;
35961;SDS011;22044;48.298;10.008;2023-06-14T04:47:40;8.20;;;5.40;;
35961;SDS011;22044;48.298;10.008;2023-06-14T04:50:26;8.10;;;4.50;;
35961;SDS011;22044;48.298;10.008;2023-06-14T04:53:14;6.07;;;4.53;;
35961;SDS011;22044;48.298;10.008;2023-06-14T04:55:59;6.83;;;4.80;;
35961;SDS011;22044;48.298;10.008;2023-06-14T04:58:49;7.27;;;4.80;;
35961;SDS011;22044;48.298;10.008;2023-06-14T05:01:36;6.30;;;4.70;;
35961;SDS011;22044;48.298;10.008;2023-06-14T05:04:21;8.50;;;4.90;;
35961;SDS011;22044;48.298;10.008;2023-06-14T05:07:07;8.30;;;4.97;;
35961;SDS011;22044;48.298;10.008;2023-06-14T05:09:54;6.53;;;4.37;;
35961;SDS011;22044;48.298;10.008;2023-06-14T05:12:40;6.53;;;4.40;;
35961;SDS011;22044;48.298;10.008;2023-06-14T05:15:28;5.67;;;4.40;;
35961;SDS011;22044;48.298;10.008;2023-06-14T05:18:15;5.90;;;4.17;;
35961;SDS011;22044;48.298;10.008;2023-06-14T05:21:00;5.23;;;4.40;;
35961;SDS011;22044;48.298;10.008;2023-06-14T05:23:46;8.43;;;5.33;;
35961;SDS011;22044;48.298;10.008;2023-06-14T05:26:31;6.63;;;4.80;;
35961;SDS011;22044;48.298;10.008;2023-06-14T05:29:17;6.73;;;4.23;;
35961;SDS011;22044;48.298;10.008;2023-06-14T05:32:03;7.17;;;4.40;;
35961;SDS011;22044;48.298;10.008;2023-06-14T05:34:50;5.30;;;4.47;;
35961;SDS011;22044;48.298;10.008;2023-06-14T05:37:36;10.83;;;4.80;;
35961;SDS011;22044;48.298;10.008;2023-06-14T05:40:21;5.07;;;3.97;;
35961;SDS011;22044;48.298;10.008;2023-06-14T05:43:07;5.77;;;4.53;;
35961;SDS011;22044;48.298;10.008;2023-06-14T05:45:54;7.00;;;4.70;;
35961;SDS011;22044;48.298;10.008;2023-06-14T05:48:40;5.10;;;4.60;;
35961;SDS011;22044;48.298;10.008;2023-06-14T05:51:27;6.60;;;3.97;;
35961;SDS011;22044;48.298;10.008;2023-06-14T05:54:13;7.13;;;4.53;;
35961;SDS011;22044;48.298;10.008;2023-06-14T05:56:58;6.33;;;4.33;;
35961;SDS011;22044;48.298;10.008;2023-06-14T05:59:45;5.77;;;4.00;;
35961;SDS011;22044;48.298;10.008;2023-06-14T06:02:31;5.07;;;4.33;;
35961;SDS011;22044;48.298;10.008;2023-06-14T06:05:17;5.97;;;4.33;;
35961;SDS011;22044;48.298;10.008;2023-06-14T06:08:04;9.03;;;5.13;;
35961;SDS011;22044;48.298;10.008;2023-06-14T06:10:51;7.93;;;4.80;;
35961;SDS011;22044;48.298;10.008;2023-06-14T06:13:40;5.07;;;4.57;;
35961;SDS011;22044;48.298;10.008;2023-06-14T06:16:25;7.93;;;4.73;;
35961;SDS011;22044;48.298;10.008;2023-06-14T06:19:11;7.17;;;4.70;;
35961;SDS011;22044;48.298;10.008;2023-06-14T06:21:57;6.80;;;4.50;;
35961;SDS011;22044;48.298;10.008;2023-06-14T06:24:44;9.17;;;5.27;;
35961;SDS011;22044;48.298;10.008;2023-06-14T06:27:29;6.57;;;4.73;;
35961;SDS011;22044;48.298;10.008;2023-06-14T06:30:15;7.60;;;4.90;;
35961;SDS011;22044;48.298;10.008;2023-06-14T06:33:01;5.80;;;4.47;;
35961;SDS011;22044;48.298;10.008;2023-06-14T06:35:47;5.80;;;4.33;;
35961;SDS011;22044;48.298;10.008;2023-06-14T06:38:33;5.93;;;4.70;;
35961;SDS011;22044;48.298;10.008;2023-06-14T06:41:20;8.03;;;4.70;;
35961;SDS011;22044;48.298;10.008;2023-06-14T06:44:05;6.90;;;4.90;;
35961;SDS011;22044;48.298;10.008;2023-06-14T06:46:52;10.67;;;4.77;;
35961;SDS011;22044;48.298;10.008;2023-06-14T06:49:37;8.53;;;4.70;;
35961;SDS011;22044;48.298;10.008;2023-06-14T06:52:23;9.73;;;5.17;;
35961;SDS011;22044;48.298;10.008;2023-06-14T06:55:08;9.37;;;5.23;;
35961;SDS011;22044;48.298;10.008;2023-06-14T06:57:56;6.33;;;4.63;;
35961;SDS011;22044;48.298;10.008;2023-06-14T07:00:41;5.80;;;5.00;;
35961;SDS011;22044;48.298;10.008;2023-06-14T07:03:27;10.07;;;4.90;;
35961;SDS011;22044;48.298;10.008;2023-06-14T07:06:14;6.80;;;4.70;;
35961;SDS011;22044;48.298;10.008;2023-06-14T07:09:01;8.43;;;4.40;;
35961;SDS011;22044;48.298;10.008;2023-06-14T07:11:48;9.97;;;4.90;;
35961;SDS011;22044;48.298;10.008;2023-06-14T07:14:35;8.53;;;5.30;;
35961;SDS011;22044;48.298;10.008;2023-06-14T07:17:21;6.13;;;4.87;;
35961;SDS011;22044;48.298;10.008;2023-06-14T07:20:07;6.97;;;4.43;;
35961;SDS011;22044;48.298;10.008;2023-06-14T07:22:57;7.13;;;4.07;;
35961;SDS011;22044;48.298;10.008;2023-06-14T07:25:42;7.37;;;4.43;;
35961;SDS011;22044;48.298;10.008;2023-06-14T07:28:28;6.87;;;3.80;;
35961;SDS011;22044;48.298;10.008;2023-06-14T07:31:15;5.30;;;4.60;;
35961;SDS011;22044;48.298;10.008;2023-06-14T07:34:02;8.23;;;4.70;;
35961;SDS011;22044;48.298;10.008;2023-06-14T07:36:48;6.73;;;4.30;;
35961;SDS011;22044;48.298;10.008;2023-06-14T07:39:34;5.30;;;4.30;;
35961;SDS011;22044;48.298;10.008;2023-06-14T07:42:19;8.60;;;4.70;;
35961;SDS011;22044;48.298;10.008;2023-06-14T07:45:05;6.87;;;4.30;;
35961;SDS011;22044;48.298;10.008;2023-06-14T07:47:53;7.57;;;5.17;;
35961;SDS011;22044;48.298;10.008;2023-06-14T07:50:39;9.43;;;4.60;;
35961;SDS011;22044;48.298;10.008;2023-06-14T07:53:24;6.83;;;4.77;;
35961;SDS011;22044;48.298;10.008;2023-06-14T07:56:10;5.57;;;4.53;;
35961;SDS011;22044;48.298;10.008;2023-06-14T07:58:56;7.83;;;4.60;;
35961;SDS011;22044;48.298;10.008;2023-06-14T08:01:41;5.20;;;4.70;;
35961;SDS011;22044;48.298;10.008;2023-06-14T08:04:33;7.03;;;4.57;;
35961;SDS011;22044;48.298;10.008;2023-06-14T08:07:18;7.97;;;4.30;;
35961;SDS011;22044;48.298;10.008;2023-06-14T08:10:04;10.20;;;4.20;;
35961;SDS011;22044;48.298;10.008;2023-06-14T08:12:51;5.73;;;4.10;;
35961;SDS011;22044;48.298;10.008;2023-06-14T08:15:36;7.47;;;4.47;;
35961;SDS011;22044;48.298;10.008;2023-06-14T08:18:22;8.00;;;4.47;;
35961;SDS011;22044;48.298;10.008;2023-06-14T08:21:09;7.40;;;3.83;;
35961;SDS011;22044;48.298;10.008;2023-06-14T08:23:54;6.33;;;4.47;;
35961;SDS011;22044;48.298;10.008;2023-06-14T08:26:40;5.27;;;3.83;;
35961;SDS011;22044;48.298;10.008;2023-06-14T08:29:26;5.70;;;4.07;;
35961;SDS011;22044;48.298;10.008;2023-06-14T08:32:14;4.03;;;3.57;;
35961;SDS011;22044;48.298;10.008;2023-06-14T08:35:01;5.80;;;4.00;;
35961;SDS011;22044;48.298;10.008;2023-06-14T08:37:48;5.32;;;4.38;;
35961;SDS011;22044;48.298;10.008;2023-06-14T08:40:35;4.78;;;3.80;;
35961;SDS011;22044;48.298;10.008;2023-06-14T08:43:23;4.05;;;3.50;;
35961;SDS011;22044;48.298;10.008;2023-06-14T08:46:09;4.88;;;3.58;;
35961;SDS011;22044;48.298;10.008;2023-06-14T08:48:56;4.63;;;4.10;;
35961;SDS011;22044;48.298;10.008;2023-06-14T08:51:42;6.10;;;3.85;;
35961;SDS011;22044;48.298;10.008;2023-06-14T08:54:30;5.97;;;3.60;;
35961;SDS011;22044;48.298;10.008;2023-06-14T08:57:27;5.65;;;3.65;;
35961;SDS011;22044;48.298;10.008;2023-06-14T09:00:17;3.80;;;3.30;;
35961;SDS011;22044;48.298;10.008;2023-06-14T09:03:06;5.22;;;3.22;;
35961;SDS011;22044;48.298;10.008;2023-06-14T09:05:57;6.18;;;3.70;;
35961;SDS011;22044;48.298;10.008;2023-06-14T09:08:45;4.30;;;3.72;;
35961;SDS011;22044;48.298;10.008;2023-06-14T09:11:34;6.45;;;3.70;;
35961;SDS011;22044;48.298;10.008;2023-06-14T09:14:21;4.55;;;3.72;;
35961;SDS011;22044;48.298;10.008;2023-06-14T09:17:09;4.43;;;3.20;;
35961;SDS011;22044;48.298;10.008;2023-06-14T09:19:58;5.07;;;3.40;;
35961;SDS011;22044;48.298;10.008;2023-06-14T09:22:44;5.57;;;3.33;;
35961;SDS011;22044;48.298;10.008;2023-06-14T09:25:37;6.07;;;3.53;;
35961;SDS011;22044;48.298;10.008;2023-06-14T09:28:28;5.45;;;3.40;;
35961;SDS011;22044;48.298;10.008;2023-06-14T09:31:15;6.20;;;3.35;;
35961;SDS011;22044;48.298;10.008;2023-06-14T09:34:02;5.03;;;3.40;;
35961;SDS011;22044;48.298;10.008;2023-06-14T09:36:47;5.85;;;3.80;;
35961;SDS011;22044;48.298;10.008;2023-06-14T09:39:34;4.25;;;2.88;;
35961;SDS011;22044;48.298;10.008;2023-06-14T09:42:21;7.50;;;3.85;;
35961;SDS011;22044;48.298;10.008;2023-06-14T09:45:11;4.40;;;3.58;;
35961;SDS011;22044;48.298;10.008;2023-06-14T09:47:57;5.78;;;3.03;;
35961;SDS011;22044;48.298;10.008;2023-06-14T09:50:44;5.32;;;3.00;;
35961;SDS011;22044;48.298;10.008;2023-06-14T09:53:33;6.07;;;3.50;;
35961;SDS011;22044;48.298;10.008;2023-06-14T09:56:22;3.85;;;3.42;;
35961;SDS011;22044;48.298;10.008;2023-06-14T09:59:12;5.55;;;3.28;;
35961;SDS011;22044;48.298;10.008;2023-06-14T10:02:01;6.38;;;3.38;;
35961;SDS011;22044;48.298;10.008;2023-06-14T10:04:55;3.75;;;2.92;;
35961;SDS011;22044;48.298;10.008;2023-06-14T10:07:48;5.22;;;3.20;;
35961;SDS011;22044;48.298;10.008;2023-06-14T10:10:38;3.70;;;3.25;;
35961;SDS011;22044;48.298;10.008;2023-06-14T10:13:31;5.90;;;3.30;;
35961;SDS011;22044;48.298;10.008;2023-06-14T10:16:20;4.60;;;3.10;;
35961;SDS011;22044;48.298;10.008;2023-06-14T10:19:13;3.88;;;3.40;;
35961;SDS011;22044;48.298;10.008;2023-06-14T10:22:10;3.75;;;3.38;;
35961;SDS011;22044;48.298;10.008;2023-06-14T10:25:25;3.25;;;2.95;;
35961;SDS011;22044;48.298;10.008;2023-06-14T10:28:17;3.58;;;3.20;;
35961;SDS011;22044;48.298;10.008;2023-06-14T10:31:07;5.85;;;3.50;;
35961;SDS011;22044;48.298;10.008;2023-06-14T10:33:55;4.70;;;3.50;;
35961;SDS011;22044;48.298;10.008;2023-06-14T10:36:43;4.45;;;3.30;;
35961;SDS011;22044;48.298;10.008;2023-06-14T10:39:30;6.88;;;3.53;;
35961;SDS011;22044;48.298;10.008;2023-06-14T10:42:16;4.75;;;3.00;;
35961;SDS011;22044;48.298;10.008;2023-06-14T10:45:04;5.95;;;3.83;;
35961;SDS011;22044;48.298;10.008;2023-06-14T10:47:50;4.25;;;3.45;;
35961;SDS011;22044;48.298;10.008;2023-06-14T10:50:37;11.00;;;3.97;;
35961;SDS011;22044;48.298;10.008;2023-06-14T10:53:30;6.25;;;3.38;;
35961;SDS011;22044;48.298;10.008;2023-06-14T10:56:28;7.55;;;3.33;;
35961;SDS011;22044;48.298;10.008;2023-06-14T10:59:15;4.50;;;3.47;;
35961;SDS011;22044;48.298;10.008;2023-06-14T11:02:07;5.10;;;3.92;;
35961;SDS011;22044;48.298;10.008;2023-06-14T11:05:05;6.00;;;3.45;;
35961;SDS011;22044;48.298;10.008;2023-06-14T11:07:58;6.00;;;3.35;;
35961;SDS011;22044;48.298;10.008;2023-06-14T11:11:05;5.20;;;3.17;;
35961;SDS011;22044;48.298;10.008;2023-06-14T11:13:51;5.72;;;3.58;;
35961;SDS011;22044;48.298;10.008;2023-06-14T11:16:37;4.00;;;3.45;;
35961;SDS011;22044;48.298;10.008;2023-06-14T11:19:23;4.78;;;3.88;;
35961;SDS011;22044;48.298;10.008;2023-06-14T11:22:12;5.53;;;3.90;;
35961;SDS011;22044;48.298;10.008;2023-06-14T11:25:00;5.28;;;3.75;;
35961;SDS011;22044;48.298;10.008;2023-06-14T11:27:50;6.25;;;3.92;;
35961;SDS011;22044;48.298;10.008;2023-06-14T11:30:36;4.75;;;3.80;;
35961;SDS011;22044;48.298;10.008;2023-06-14T11:33:21;3.92;;;3.53;;
35961;SDS011;22044;48.298;10.008;2023-06-14T11:36:08;7.35;;;4.05;;
35961;SDS011;22044;48.298;10.008;2023-06-14T11:38:57;5.28;;;3.83;;
35961;SDS011;22044;48.298;10.008;2023-06-14T11:41:44;4.32;;;3.90;;
35961;SDS011;22044;48.298;10.008;2023-06-14T11:44:33;7.65;;;3.60;;
35961;SDS011;22044;48.298;10.008;2023-06-14T11:47:18;5.95;;;3.90;;
35961;SDS011;22044;48.298;10.008;2023-06-14T11:50:05;5.30;;;3.53;;
35961;SDS011;22044;48.298;10.008;2023-06-14T11:52:52;4.53;;;3.95;;
35961;SDS011;22044;48.298;10.008;2023-06-14T11:55:38;4.47;;;3.28;;
35961;SDS011;22044;48.298;10.008;2023-06-14T11:58:25;4.13;;;3.72;;
35961;SDS011;22044;48.298;10.008;2023-06-14T12:01:15;4.03;;;3.50;;
35961;SDS011;22044;48.298;10.008;2023-06-14T12:04:01;4.35;;;3.72;;
35961;SDS011;22044;48.298;10.008;2023-06-14T12:06:47;4.32;;;3.25;;
35961;SDS011;22044;48.298;10.008;2023-06-14T12:09:33;5.30;;;3.35;;
35961;SDS011;22044;48.298;10.008;2023-06-14T12:12:20;6.40;;;3.65;;
35961;SDS011;22044;48.298;10.008;2023-06-14T12:15:07;6.28;;;3.65;;
35961;SDS011;22044;48.298;10.008;2023-06-14T12:17:56;3.90;;;3.38;;
35961;SDS011;22044;48.298;10.008;2023-06-14T12:20:42;5.40;;;3.70;;
35961;SDS011;22044;48.298;10.008;2023-06-14T12:23:41;3.58;;;3.05;;
35961;SDS011;22044;48.298;10.008;2023-06-14T12:26:28;5.10;;;3.83;;
35961;SDS011;22044;48.298;10.008;2023-06-14T12:29:14;6.00;;;3.70;;
35961;SDS011;22044;48.298;10.008;2023-06-14T12:31:59;4.40;;;3.22;;
35961;SDS011;22044;48.298;10.008;2023-06-14T12:34:46;3.80;;;3.50;;
35961;SDS011;22044;48.298;10.008;2023-06-14T12:37:33;7.90;;;3.55;;
35961;SDS011;22044;48.298;10.008;2023-06-14T12:40:19;8.10;;;3.55;;
35961;SDS011;22044;48.298;10.008;2023-06-14T12:43:04;4.90;;;3.20;;
35961;SDS011;22044;48.298;10.008;2023-06-14T12:45:50;3.53;;;3.08;;
35961;SDS011;22044;48.298;10.008;2023-06-14T12:48:35;4.20;;;3.20;;
35961;SDS011;22044;48.298;10.008;2023-06-14T12:51:22;4.72;;;3.67;;
35961;SDS011;22044;48.298;10.008;2023-06-14T12:54:09;5.60;;;3.53;;
35961;SDS011;22044;48.298;10.008;2023-06-14T12:56:55;4.13;;;3.72;;
35961;SDS011;22044;48.298;10.008;2023-06-14T12:59:41;4.20;;;3.63;;
35961;SDS011;22044;48.298;10.008;2023-06-14T13:02:27;3.58;;;3.28;;
35961;SDS011;22044;48.298;10.008;2023-06-14T13:05:12;5.30;;;3.65;;
35961;SDS011;22044;48.298;10.008;2023-06-14T13:08:00;3.80;;;3.25;;
35961;SDS011;22044;48.298;10.008;2023-06-14T13:10:45;3.30;;;3.00;;
35961;SDS011;22044;48.298;10.008;2023-06-14T13:13:31;5.78;;;3.55;;
35961;SDS011;22044;48.298;10.008;2023-06-14T13:16:17;3.70;;;3.40;;
35961;SDS011;22044;48.298;10.008;2023-06-14T13:19:03;6.28;;;3.25;;
35961;SDS011;22044;48.298;10.008;2023-06-14T13:21:49;7.07;;;3.75;;
35961;SDS011;22044;48.298;10.008;2023-06-14T13:24:36;5.03;;;3.40;;
35961;SDS011;22044;48.298;10.008;2023-06-14T13:27:21;4.28;;;3.60;;
35961;SDS011;22044;48.298;10.008;2023-06-14T13:30:09;5.88;;;3.10;;
35961;SDS011;22044;48.298;10.008;2023-06-14T13:32:55;7.00;;;3.47;;
35961;SDS011;22044;48.298;10.008;2023-06-14T13:35:40;3.65;;;3.30;;
35961;SDS011;22044;48.298;10.008;2023-06-14T13:38:26;4.15;;;3.10;;
35961;SDS011;22044;48.298;10.008;2023-06-14T13:41:17;3.40;;;3.10;;
35961;SDS011;22044;48.298;10.008;2023-06-14T13:44:22;5.93;;;3.17;;
35961;SDS011;22044;48.298;10.008;2023-06-14T13:47:08;4.93;;;3.63;;
35961;SDS011;22044;48.298;10.008;2023-06-14T13:49:55;4.40;;;3.42;;
35961;SDS011;22044;48.298;10.008;2023-06-14T13:52:41;3.28;;;2.97;;
35961;SDS011;22044;48.298;10.008;2023-06-14T13:55:27;5.05;;;3.40;;
35961;SDS011;22044;48.298;10.008;2023-06-14T13:58:14;4.00;;;3.35;;
35961;SDS011;22044;48.298;10.008;2023-06-14T14:01:00;5.35;;;3.35;;
35961;SDS011;22044;48.298;10.008;2023-06-14T14:03:46;4.38;;;3.47;;
35961;SDS011;22044;48.298;10.008;2023-06-14T14:06:31;5.38;;;3.17;;
35961;SDS011;22044;48.298;10.008;2023-06-14T14:09:17;5.03;;;3.15;;
35961;SDS011;22044;48.298;10.008;2023-06-14T14:12:03;5.80;;;3.45;;
35961;SDS011;22044;48.298;10.008;2023-06-14T14:14:54;3.92;;;3.17;;
35961;SDS011;22044;48.298;10.008;2023-06-14T14:17:39;5.32;;;3.40;;
35961;SDS011;22044;48.298;10.008;2023-06-14T14:20:25;3.65;;;3.33;;
35961;SDS011;22044;48.298;10.008;2023-06-14T14:23:10;5.00;;;3.03;;
35961;SDS011;22044;48.298;10.008;2023-06-14T14:25:56;6.80;;;3.30;;
35961;SDS011;22044;48.298;10.008;2023-06-14T14:28:42;3.60;;;3.30;;
35961;SDS011;22044;48.298;10.008;2023-06-14T14:31:29;3.53;;;3.22;;
35961;SDS011;22044;48.298;10.008;2023-06-14T14:34:15;7.10;;;3.50;;
35961;SDS011;22044;48.298;10.008;2023-06-14T14:37:00;4.65;;;3.28;;
35961;SDS011;22044;48.298;10.008;2023-06-14T14:39:46;3.47;;;3.13;;
35961;SDS011;22044;48.298;10.008;2023-06-14T14:42:32;4.97;;;3.25;;
35961;SDS011;22044;48.298;10.008;2023-06-14T14:45:17;5.68;;;3.13;;
35961;SDS011;22044;48.298;10.008;2023-06-14T14:48:05;4.50;;;3.10;;
35961;SDS011;22044;48.298;10.008;2023-06-14T14:50:50;4.78;;;3.58;;
35961;SDS011;22044;48.298;10.008;2023-06-14T14:53:36;5.20;;;3.25;;
35961;SDS011;22044;48.298;10.008;2023-06-14T14:56:22;4.90;;;3.35;;
35961;SDS011;22044;48.298;10.008;2023-06-14T14:59:07;10.27;;;3.72;;
35961;SDS011;22044;48.298;10.008;2023-06-14T15:01:53;7.22;;;3.28;;
35961;SDS011;22044;48.298;10.008;2023-06-14T15:04:40;6.43;;;3.83;;
35961;SDS011;22044;48.298;10.008;2023-06-14T15:07:26;4.35;;;3.45;;
35961;SDS011;22044;48.298;10.008;2023-06-14T15:10:12;6.65;;;3.63;;
35961;SDS011;22044;48.298;10.008;2023-06-14T15:12:57;3.75;;;3.40;;
35961;SDS011;22044;48.298;10.008;2023-06-14T15:15:43;5.38;;;3.47;;
35961;SDS011;22044;48.298;10.008;2023-06-14T15:18:29;3.60;;;3.20;;
35961;SDS011;22044;48.298;10.008;2023-06-14T15:21:16;6.55;;;3.40;;
35961;SDS011;22044;48.298;10.008;2023-06-14T15:24:03;3.45;;;3.13;;
35961;SDS011;22044;48.298;10.008;2023-06-14T15:26:49;3.72;;;3.40;;
35961;SDS011;22044;48.298;10.008;2023-06-14T15:29:35;3.17;;;2.88;;
35961;SDS011;22044;48.298;10.008;2023-06-14T15:32:20;3.53;;;3.05;;
35961;SDS011;22044;48.298;10.008;2023-06-14T15:35:06;3.78;;;2.95;;
35961;SDS011;22044;48.298;10.008;2023-06-14T15:37:53;4.43;;;3.63;;
35961;SDS011;22044;48.298;10.008;2023-06-14T15:40:39;5.82;;;3.70;;
35961;SDS011;22044;48.298;10.008;2023-06-14T15:43:25;5.45;;;3.38;;
35961;SDS011;22044;48.298;10.008;2023-06-14T15:46:10;3.67;;;3.30;;
35961;SDS011;22044;48.298;10.008;2023-06-14T15:48:56;5.60;;;3.47;;
35961;SDS011;22044;48.298;10.008;2023-06-14T15:51:42;3.70;;;3.40;;
35961;SDS011;22044;48.298;10.008;2023-06-14T15:54:29;4.97;;;3.35;;
35961;SDS011;22044;48.298;10.008;2023-06-14T15:57:14;4.78;;;3.05;;
35961;SDS011;22044;48.298;10.008;2023-06-14T16:00:00;4.80;;;3.53;;
35961;SDS011;22044;48.298;10.008;2023-06-14T16:02:45;7.22;;;3.38;;
35961;SDS011;22044;48.298;10.008;2023-06-14T16:05:31;5.75;;;3.22;;
35961;SDS011;22044;48.298;10.008;2023-06-14T16:08:16;4.95;;;3.28;;
35961;SDS011;22044;48.298;10.008;2023-06-14T16:11:04;4.32;;;3.05;;
35961;SDS011;22044;48.298;10.008;2023-06-14T16:13:49;3.63;;;3.33;;
35961;SDS011;22044;48.298;10.008;2023-06-14T16:16:35;4.88;;;3.53;;
35961;SDS011;22044;48.298;10.008;2023-06-14T16:19:21;3.72;;;3.30;;
35961;SDS011;22044;48.298;10.008;2023-06-14T16:22:06;3.60;;;2.90;;
35961;SDS011;22044;48.298;10.008;2023-06-14T16:24:52;3.92;;;3.33;;
35961;SDS011;22044;48.298;10.008;2023-06-14T16:27:39;4.43;;;3.03;;
35961;SDS011;22044;48.298;10.008;2023-06-14T16:30:24;3.08;;;2.80;;